Time;durP1;ratioP1;P1;durP2;ratioP2;P2;SDS_P1;SDS_P2;PMS_P1;PMS_P2;Temp;Humidity;BMP_temperature;BMP_pressure;BME280_temperature;BME280_humidity;BME280_pressure;Samples;Min_cycle;Max_cycle;Signal;HPM_P1;HPM_P2
2023/06/12 00:00:51;;;;;;;4.10;1.80;;;;;;;19.63;100.00;99731.50;4941511;28;20238;-76
2023/06/12 00:03:19;;;;;;;8.40;2.83;;;;;;;19.78;100.00;99740.75;4940358;28;20234;-77
2023/06/12 00:05:46;;;;;;;4.72;2.10;;;;;;;19.55;100.00;99730.03;4956580;28;20236;-77
2023/06/12 00:08:17;;;;;;;8.65;3.10;;;;;;;19.35;100.00;99747.72;4939460;28;20240;-77
2023/06/12 00:10:45;;;;;;;4.18;2.00;;;;;;;19.23;100.00;99783.00;4936039;28;20238;-77
2023/06/12 00:13:13;;;;;;;6.80;2.50;;;;;;;19.19;100.00;99818.91;4941126;28;20233;-77
2023/06/12 00:15:40;;;;;;;6.13;2.95;;;;;;;19.40;100.00;99822.59;4944265;28;20241;-76
2023/06/12 00:18:06;;;;;;;3.83;1.60;;;;;;;19.41;100.00;99819.88;4944686;28;20245;-76
2023/06/12 00:20:33;;;;;;;3.63;1.85;;;;;;;19.41;100.00;99813.63;4940683;28;20238;-76
2023/06/12 00:23:00;;;;;;;3.33;1.65;;;;;;;19.50;100.00;99829.38;4944911;28;20233;-76
2023/06/12 00:25:27;;;;;;;9.40;2.92;;;;;;;19.40;100.00;99818.13;4935645;28;20230;-76
2023/06/12 00:27:54;;;;;;;2.97;1.30;;;;;;;19.52;100.00;99829.34;4927174;29;20252;-76
2023/06/12 00:30:21;;;;;;;10.77;3.45;;;;;;;19.46;100.00;99809.84;4922781;28;20226;-76
2023/06/12 00:32:48;;;;;;;3.28;1.42;;;;;;;19.34;100.00;99801.38;4933744;28;20230;-76
2023/06/12 00:35:18;;;;;;;9.18;3.05;;;;;;;19.28;100.00;99793.56;4920845;28;20229;-76
2023/06/12 00:37:46;;;;;;;2.75;1.42;;;;;;;19.31;100.00;99767.53;4939115;28;20230;-76
2023/06/12 00:40:13;;;;;;;7.55;2.63;;;;;;;19.21;100.00;99787.56;4939719;28;20241;-76
2023/06/12 00:42:45;;;;;;;3.53;1.52;;;;;;;19.11;100.00;99786.13;4944084;28;20240;-76
2023/06/12 00:45:13;;;;;;;8.05;2.88;;;;;;;19.18;100.00;99798.41;4938718;28;20244;-76
2023/06/12 00:47:41;;;;;;;3.47;1.52;;;;;;;19.17;100.00;99800.19;4939454;28;20234;-76
2023/06/12 00:50:12;;;;;;;3.92;1.80;;;;;;;19.14;100.00;99796.75;4930682;28;20231;-76
2023/06/12 00:52:47;;;;;;;2.80;1.35;;;;;;;19.03;100.00;99806.97;4944108;28;20229;-76
2023/06/12 00:55:15;;;;;;;9.23;3.25;;;;;;;18.91;100.00;99810.97;4922297;28;20250;-77
2023/06/12 00:57:44;;;;;;;3.30;1.50;;;;;;;18.82;100.00;99806.81;4945142;28;20242;-76
2023/06/12 01:00:12;;;;;;;4.05;1.83;;;;;;;18.94;100.00;99834.97;4939406;28;20252;-77
2023/06/12 01:03:04;;;;;;;2.55;1.25;;;;;;;18.94;100.00;99861.78;4917562;29;20237;-76
2023/06/12 01:05:37;;;;;;;2.58;1.33;;;;;;;18.95;100.00;99835.84;4904421;28;20237;-76
2023/06/12 01:08:29;;;;;;;3.40;1.58;;;;;;;19.09;100.00;99830.88;4935763;28;20230;-77
2023/06/12 01:11:02;;;;;;;2.70;1.55;;;;;;;18.94;100.00;99823.38;4923343;28;20233;-76
2023/06/12 01:13:30;;;;;;;3.00;1.50;;;;;;;18.85;100.00;99852.25;4922019;28;20248;-76
2023/06/12 01:15:57;;;;;;;2.38;1.40;;;;;;;18.72;100.00;99839.31;4937975;28;20232;-76
2023/06/12 01:18:23;;;;;;;6.20;2.38;;;;;;;18.55;100.00;99864.81;4933812;28;20238;-76
2023/06/12 01:20:53;;;;;;;3.65;1.63;;;;;;;18.31;100.00;99886.16;4938271;28;20233;-76
2023/06/12 01:23:58;;;;;;;6.18;2.53;;;;;;;18.58;100.00;99938.81;4924526;28;20596;-76
2023/06/12 01:26:36;;;;;;;8.20;2.90;;;;;;;18.75;100.00;99882.94;4926137;28;20305;-76
2023/06/12 01:29:32;;;;;;;2.75;1.50;;;;;;;18.96;100.00;99873.31;4943535;28;20238;-76
2023/06/12 01:32:03;;;;;;;2.85;1.52;;;;;;;18.80;100.00;99859.56;4936377;28;20225;-77
2023/06/12 01:34:58;;;;;;;3.90;1.80;;;;;;;18.50;100.00;99855.19;4932518;28;20238;-76
2023/06/12 01:37:32;;;;;;;7.90;2.78;;;;;;;18.35;100.00;99923.47;4919105;28;20244;-76
2023/06/12 01:40:00;;;;;;;3.00;1.40;;;;;;;18.39;100.00;99900.16;4929638;28;20316;-76
2023/06/12 01:42:28;;;;;;;11.13;3.58;;;;;;;18.39;100.00;99878.75;4943537;28;20271;-76
2023/06/12 01:44:55;;;;;;;5.40;2.40;;;;;;;18.34;100.00;99932.44;4923473;28;20234;-76
2023/06/12 01:47:22;;;;;;;7.30;2.75;;;;;;;18.29;100.00;99946.88;4941515;28;20237;-76
2023/06/12 01:49:49;;;;;;;3.30;1.55;;;;;;;18.26;100.00;99979.09;4927567;29;20312;-76
2023/06/12 01:52:16;;;;;;;9.95;3.10;;;;;;;17.99;100.00;99941.47;4943471;28;20230;-76
2023/06/12 01:54:49;;;;;;;4.75;2.05;;;;;;;17.80;100.00;99988.41;4942853;28;20257;-76
2023/06/12 01:57:19;;;;;;;10.27;3.97;;;;;;;17.91;100.00;100008.59;4936995;28;20233;-78
2023/06/12 01:59:47;;;;;;;3.83;1.70;;;;;;;17.98;100.00;100022.66;4938365;28;20254;-76
2023/06/12 02:02:14;;;;;;;7.35;2.65;;;;;;;17.90;100.00;99976.53;4942429;28;20234;-76
2023/06/12 02:04:41;;;;;;;3.45;1.45;;;;;;;18.06;100.00;99963.59;4944648;28;20722;-77
2023/06/12 02:07:09;;;;;;;4.18;2.05;;;;;;;18.01;100.00;100013.69;4941910;28;20245;-78
2023/06/12 02:09:35;;;;;;;2.88;1.50;;;;;;;17.87;100.00;100014.94;4943831;28;20239;-76
2023/06/12 02:12:02;;;;;;;3.55;1.70;;;;;;;17.82;100.00;100019.53;4928463;28;20242;-76
2023/06/12 02:14:29;;;;;;;3.75;1.63;;;;;;;17.76;100.00;100005.44;4944418;28;20241;-76
2023/06/12 02:16:56;;;;;;;3.60;1.70;;;;;;;17.80;100.00;100020.50;4945358;28;20233;-76
2023/06/12 02:19:28;;;;;;;9.77;3.55;;;;;;;17.71;100.00;100020.75;4941431;28;20233;-76
2023/06/12 02:21:56;;;;;;;4.18;2.35;;;;;;;17.66;100.00;100026.22;4945714;28;20241;-76
2023/06/12 02:24:29;;;;;;;7.82;2.78;;;;;;;17.63;100.00;100015.56;4939118;28;20254;-76
2023/06/12 02:26:56;;;;;;;4.13;1.73;;;;;;;17.41;100.00;100025.94;4942619;28;20304;-76
2023/06/12 02:29:22;;;;;;;8.70;3.40;;;;;;;17.50;100.00;100023.03;4952527;28;20232;-76
2023/06/12 02:31:49;;;;;;;4.53;1.95;;;;;;;17.57;100.00;100054.03;4953790;28;20241;-76
2023/06/12 02:34:16;;;;;;;6.75;2.60;;;;;;;17.50;100.00;100038.19;4945486;28;20260;-76
2023/06/12 02:36:43;;;;;;;3.97;1.70;;;;;;;17.48;100.00;100045.38;4949607;28;20293;-76
2023/06/12 02:39:13;;;;;;;4.15;1.92;;;;;;;17.40;100.00;100080.31;4942078;28;20230;-76
2023/06/12 02:41:41;;;;;;;4.47;2.15;;;;;;;17.35;100.00;100073.31;4944706;28;20324;-76
2023/06/12 02:44:07;;;;;;;3.22;1.60;;;;;;;17.31;100.00;100091.22;4946252;28;20241;-76
2023/06/12 02:46:56;;;;;;;4.93;2.10;;;;;;;17.14;100.00;100101.44;4941668;28;20241;-76
2023/06/12 02:49:28;;;;;;;8.93;3.05;;;;;;;17.16;100.00;100112.97;4938968;28;20240;-76
2023/06/12 02:51:55;;;;;;;3.13;1.45;;;;;;;17.17;100.00;100112.94;4944235;28;20240;-76
2023/06/12 02:54:24;;;;;;;10.57;3.38;;;;;;;17.17;100.00;100110.25;4930925;28;20241;-77
2023/06/12 02:56:51;;;;;;;5.28;2.25;;;;;;;17.15;100.00;100079.16;4946919;28;20245;-76
2023/06/12 02:59:19;;;;;;;8.93;3.10;;;;;;;17.20;100.00;100120.00;4936202;28;20228;-76
2023/06/12 03:01:46;;;;;;;6.32;2.55;;;;;;;17.03;100.00;100096.34;4937253;28;20242;-76
2023/06/12 03:04:15;;;;;;;9.05;3.08;;;;;;;16.97;100.00;100112.50;4939761;28;20588;-76
2023/06/12 03:06:44;;;;;;;3.33;1.60;;;;;;;16.78;100.00;100149.38;4944787;28;20248;-76
2023/06/12 03:09:15;;;;;;;8.13;3.13;;;;;;;16.66;100.00;100183.47;4938631;28;20232;-76
2023/06/12 03:11:43;;;;;;;4.50;2.15;;;;;;;16.75;100.00;100185.94;4926301;28;20316;-76
2023/06/12 03:14:12;;;;;;;5.00;2.10;;;;;;;16.26;100.00;100200.19;4941226;28;20240;-76
2023/06/12 03:16:42;;;;;;;3.22;1.60;;;;;;;16.35;100.00;100215.16;4923362;28;20264;-76
2023/06/12 03:19:08;;;;;;;5.90;2.63;;;;;;;16.40;100.00;100238.19;4921729;28;20590;-77
2023/06/12 03:21:36;;;;;;;4.80;2.13;;;;;;;16.39;100.00;100231.09;4942074;28;20236;-76
2023/06/12 03:24:04;;;;;;;5.72;2.47;;;;;;;16.35;100.00;100249.84;4927104;28;20249;-76
2023/06/12 03:26:33;;;;;;;4.53;1.88;;;;;;;16.29;100.00;100253.50;4918563;28;20347;-76
2023/06/12 03:29:01;;;;;;;3.10;1.42;;;;;;;16.53;100.00;100258.41;4937236;28;20226;-76
2023/06/12 03:31:28;;;;;;;5.55;2.05;;;;;;;16.10;100.00;100265.41;4936348;28;20260;-76
2023/06/12 03:33:55;;;;;;;4.88;2.17;;;;;;;15.80;100.00;100253.41;4928366;29;20261;-77
2023/06/12 03:36:25;;;;;;;7.93;2.85;;;;;;;15.79;100.00;100273.88;4932773;28;20237;-76
2023/06/12 03:38:52;;;;;;;4.45;1.85;;;;;;;15.83;100.00;100290.72;4945028;28;20256;-76
2023/06/12 03:41:21;;;;;;;6.80;2.70;;;;;;;16.02;100.00;100297.53;4940699;28;20297;-76
2023/06/12 03:43:48;;;;;;;3.67;1.70;;;;;;;16.26;100.00;100317.59;4945128;28;20256;-76
2023/06/12 03:46:15;;;;;;;12.18;4.38;;;;;;;16.21;100.00;100338.13;4937529;28;20228;-76
2023/06/12 03:48:42;;;;;;;3.83;1.75;;;;;;;16.16;100.00;100361.34;4942489;28;20230;-76
2023/06/12 03:51:08;;;;;;;4.68;1.88;;;;;;;15.92;100.00;100342.13;4922642;28;20237;-77
2023/06/12 03:53:37;;;;;;;6.70;2.53;;;;;;;16.16;100.00;100354.22;4938453;28;20242;-76
2023/06/12 03:56:04;;;;;;;6.97;2.75;;;;;;;16.14;100.00;100356.03;4944156;28;20248;-76
2023/06/12 03:58:31;;;;;;;3.88;1.65;;;;;;;15.97;100.00;100377.59;4938778;28;20583;-76
2023/06/12 04:00:58;;;;;;;4.05;1.92;;;;;;;15.94;100.00;100399.00;4928755;28;20226;-76
2023/06/12 04:03:25;;;;;;;9.07;3.20;;;;;;;15.93;100.00;100407.91;4939774;28;20234;-76
2023/06/12 04:05:52;;;;;;;4.28;1.88;;;;;;;15.94;100.00;100423.00;4948782;28;20291;-76
2023/06/12 04:08:20;;;;;;;8.43;3.10;;;;;;;16.28;100.00;100434.09;4939700;28;20339;-77
2023/06/12 04:10:47;;;;;;;5.45;2.33;;;;;;;16.49;100.00;100416.00;4938552;28;20234;-76
2023/06/12 04:13:13;;;;;;;11.07;4.10;;;;;;;16.51;100.00;100416.84;4938440;28;20233;-76
2023/06/12 04:15:40;;;;;;;8.32;3.35;;;;;;;16.21;100.00;100423.53;4944435;28;20245;-76
2023/06/12 04:18:07;;;;;;;3.72;1.65;;;;;;;16.09;100.00;100434.38;4944049;28;20253;-76
2023/06/12 04:20:34;;;;;;;4.03;1.67;;;;;;;16.20;100.00;100452.00;4948626;28;20252;-76
2023/06/12 04:23:04;;;;;;;4.45;1.70;;;;;;;16.40;100.00;100483.75;4943776;28;20245;-76
2023/06/12 04:25:32;;;;;;;8.60;3.20;;;;;;;16.45;100.00;100475.66;4933586;28;20587;-77
2023/06/12 04:28:00;;;;;;;5.18;1.92;;;;;;;16.42;100.00;100460.56;4946601;28;20713;-77
2023/06/12 04:30:27;;;;;;;10.68;3.72;;;;;;;16.51;100.00;100486.25;4947529;28;20228;-77
2023/06/12 04:32:56;;;;;;;7.97;3.20;;;;;;;16.43;100.00;100477.47;4943287;28;20226;-77
2023/06/12 04:35:23;;;;;;;10.48;3.17;;;;;;;16.33;100.00;100493.63;4929235;28;20234;-77
2023/06/12 04:37:52;;;;;;;4.82;2.08;;;;;;;16.45;100.00;100492.56;4943299;28;20241;-78
2023/06/12 04:40:24;;;;;;;36.05;7.72;;;;;;;16.57;100.00;100516.41;4936843;28;20284;-77
2023/06/12 04:42:56;;;;;;;5.20;2.00;;;;;;;16.64;100.00;100515.41;4942992;28;20232;-78
2023/06/12 04:45:23;;;;;;;39.22;8.25;;;;;;;16.76;100.00;100510.84;4938804;28;20222;-76
2023/06/12 04:47:51;;;;;;;5.85;2.17;;;;;;;16.83;100.00;100528.53;4924497;28;20305;-76
2023/06/12 04:50:18;;;;;;;25.45;6.60;;;;;;;16.92;100.00;100544.47;4946004;28;20828;-76
2023/06/12 04:52:48;;;;;;;4.85;1.95;;;;;;;17.12;100.00;100522.78;4920473;28;20240;-76
2023/06/12 04:55:20;;;;;;;34.13;7.72;;;;;;;17.31;100.00;100492.16;4936267;28;20217;-79
2023/06/12 04:57:52;;;;;;;5.20;1.92;;;;;;;17.50;100.00;100484.69;4926441;28;20236;-77
2023/06/12 05:00:20;;;;;;;33.50;6.97;;;;;;;17.70;100.00;100430.84;4934683;28;20237;-77
2023/06/12 05:02:49;;;;;;;4.50;1.75;;;;;;;17.84;100.00;100412.72;4946823;28;20317;-76
2023/06/12 05:05:16;;;;;;;29.77;6.55;;;;;;;17.95;100.00;100383.06;4937499;28;20255;-77
2023/06/12 05:07:45;;;;;;;4.63;1.73;;;;;;;17.98;100.00;100375.84;4938898;28;20239;-77
2023/06/12 05:10:14;;;;;;;25.25;5.45;;;;;;;17.96;100.00;100366.97;4932337;28;20226;-77
2023/06/12 05:12:41;;;;;;;6.40;2.40;;;;;;;18.05;100.00;100360.53;4941399;28;20248;-78
2023/06/12 05:15:09;;;;;;;6.40;2.33;;;;;;;18.18;100.00;100362.88;4941926;28;20226;-80
2023/06/12 05:17:36;;;;;;;5.32;1.90;;;;;;;18.28;100.00;100363.59;4938869;28;20238;-78
2023/06/12 05:20:08;;;;;;;4.32;1.80;;;;;;;18.41;100.00;100375.78;4930080;28;20229;-78
2023/06/12 05:22:36;;;;;;;6.28;2.45;;;;;;;18.42;100.00;100376.66;4934763;28;20234;-80
2023/06/12 05:25:03;;;;;;;4.22;1.67;;;;;;;18.50;100.00;100390.72;4922335;28;20226;-78
2023/06/12 05:27:31;;;;;;;5.35;2.72;;;;;;;18.51;100.00;100390.69;4926926;28;20257;-77
2023/06/12 05:29:58;;;;;;;3.75;1.58;;;;;;;18.69;100.00;100383.16;4933383;28;20261;-78
2023/06/12 05:32:25;;;;;;;10.70;3.47;;;;;;;18.77;100.00;100351.69;4932928;28;20328;-78
2023/06/12 05:34:52;;;;;;;3.90;1.75;;;;;;;18.84;100.00;100335.41;4939907;28;20311;-77
2023/06/12 05:37:18;;;;;;;11.07;3.35;;;;;;;18.95;100.00;100324.41;4937086;28;20234;-77
2023/06/12 05:39:45;;;;;;;7.60;3.17;;;;;;;19.04;100.00;100350.09;4976823;23;20228;-82
2023/06/12 05:42:12;;;;;;;15.35;4.20;;;;;;;19.21;100.00;100390.72;4974672;28;20235;-82
2023/06/12 05:44:39;;;;;;;5.95;2.33;;;;;;;19.23;100.00;100361.19;4976319;28;20231;-83
2023/06/12 05:47:06;;;;;;;5.15;2.33;;;;;;;19.35;100.00;100340.28;4982103;28;20224;-82
2023/06/12 05:49:36;;;;;;;5.15;2.10;;;;;;;19.37;100.00;100327.69;4977904;28;20224;-82
2023/06/12 05:52:05;;;;;;;4.90;2.00;;;;;;;19.47;100.00;100314.91;4983580;28;20224;-79
2023/06/12 05:54:32;;;;;;;5.28;2.72;;;;;;;19.59;100.00;100316.41;4977773;28;20232;-79
2023/06/12 05:56:59;;;;;;;4.38;1.90;;;;;;;19.61;100.00;100290.41;4979803;28;20688;-78
2023/06/12 05:59:26;;;;;;;39.53;9.50;;;;;;;19.81;100.00;100293.38;4975016;28;20580;-79
2023/06/12 06:01:54;;;;;;;5.95;2.20;;;;;;;19.93;100.00;100293.00;4980676;28;20711;-78
2023/06/12 06:04:21;;;;;;;38.25;8.80;;;;;;;19.95;100.00;100242.81;4973640;28;20236;-78
2023/06/12 06:06:50;;;;;;;6.20;2.47;;;;;;;20.03;100.00;100221.97;4980455;28;20278;-78
2023/06/12 06:09:16;;;;;;;41.33;10.38;;;;;;;20.17;100.00;100207.22;4975412;28;20235;-79
2023/06/12 06:11:43;;;;;;;5.75;2.25;;;;;;;20.34;100.00;100208.38;4980182;28;20235;-78
2023/06/12 06:14:10;;;;;;;8.18;2.75;;;;;;;20.54;100.00;100206.84;4974996;28;20232;-78
2023/06/12 06:16:36;;;;;;;5.30;2.25;;;;;;;20.54;100.00;100171.91;4964385;28;20693;-78
2023/06/12 06:19:20;;;;;;;38.67;8.95;;;;;;;20.67;100.00;100147.25;4976842;28;20229;-78
2023/06/12 06:21:46;;;;;;;6.07;2.42;;;;;;;20.47;100.00;100136.34;4982214;28;20293;-78
2023/06/12 06:24:13;;;;;;;11.02;3.92;;;;;;;20.93;100.00;100165.09;4977023;28;20292;-79
2023/06/12 06:26:40;;;;;;;6.75;2.55;;;;;;;20.97;100.00;100142.56;4985357;28;20285;-79
2023/06/12 06:29:07;;;;;;;5.45;2.25;;;;;;;21.08;100.00;100118.81;4986924;28;20224;-79
2023/06/12 06:31:40;;;;;;;5.32;2.25;;;;;;;21.29;100.00;100111.75;4983628;28;20228;-78
2023/06/12 06:34:08;;;;;;;4.03;1.70;;;;;;;21.11;100.00;100066.72;4986148;28;20227;-78
2023/06/12 06:36:35;;;;;;;4.95;2.10;;;;;;;21.37;100.00;100053.13;4980740;28;20235;-78
2023/06/12 06:39:03;;;;;;;5.38;2.28;;;;;;;21.68;100.00;100068.88;4984318;28;20220;-79
2023/06/12 06:41:30;;;;;;;4.80;2.20;;;;;;;21.82;100.00;100079.06;4979928;28;20236;-79
2023/06/12 06:43:56;;;;;;;5.55;2.20;;;;;;;21.92;100.00;100064.25;4984650;28;20228;-78
2023/06/12 06:46:23;;;;;;;13.90;4.88;;;;;;;22.01;100.00;100041.44;4976920;28;20232;-79
2023/06/12 06:48:50;;;;;;;5.13;2.15;;;;;;;22.23;100.00;100034.22;4981062;28;20233;-79
2023/06/12 06:51:18;;;;;;;10.57;3.55;;;;;;;22.30;100.00;100045.59;4979883;28;20232;-79
2023/06/12 06:53:45;;;;;;;5.32;2.97;;;;;;;22.56;100.00;100041.69;4978992;28;20231;-79
2023/06/12 06:56:11;;;;;;;12.55;4.90;;;;;;;22.65;100.00;99953.19;4972045;28;20225;-79
2023/06/12 06:58:38;;;;;;;5.60;2.35;;;;;;;22.49;100.00;99927.06;4976725;28;20224;-79
2023/06/12 07:01:05;;;;;;;3.88;1.67;;;;;;;22.53;100.00;99917.88;4985880;28;20224;-79
2023/06/12 07:03:32;;;;;;;3.60;1.70;;;;;;;22.77;100.00;99905.91;4981920;28;20237;-80
2023/06/12 07:05:58;;;;;;;4.47;1.70;;;;;;;22.92;100.00;99909.69;4919664;28;20314;-82
2023/06/12 07:08:25;;;;;;;15.63;5.18;;;;;;;23.28;100.00;99942.88;4839537;28;20229;-80
2023/06/12 07:10:55;;;;;;;3.67;1.65;;;;;;;22.98;97.68;99842.84;4942532;28;20228;-79
2023/06/12 07:13:22;;;;;;;15.57;5.32;;;;;;;22.96;97.20;99815.06;4851636;28;20325;-79
2023/06/12 07:15:49;;;;;;;9.10;3.60;;;;;;;23.28;96.31;99824.19;4888502;28;20235;-79
2023/06/12 07:18:16;;;;;;;6.43;2.63;;;;;;;23.40;98.22;99846.94;4767978;28;20721;-79
2023/06/12 07:20:46;;;;;;;3.85;1.75;;;;;;;23.54;96.51;99824.66;4941661;28;20231;-79
2023/06/12 07:23:13;;;;;;;7.03;2.92;;;;;;;23.40;96.35;99794.81;4978800;28;20231;-81
2023/06/12 07:25:40;;;;;;;7.45;2.92;;;;;;;23.94;95.20;99826.94;4981031;28;20232;-80
2023/06/12 07:28:06;;;;;;;2.70;1.33;;;;;;;23.83;94.56;99786.16;4984760;28;20242;-79
2023/06/12 07:30:36;;;;;;;4.28;1.88;;;;;;;23.43;90.93;99694.81;4980084;28;20235;-80
2023/06/12 07:33:02;;;;;;;4.90;2.00;;;;;;;23.67;90.64;99693.50;4983941;28;20219;-80
2023/06/12 07:35:29;;;;;;;3.08;1.55;;;;;;;23.93;93.93;99768.50;4976996;28;20316;-83
2023/06/12 07:37:56;;;;;;;4.28;1.90;;;;;;;23.96;91.55;99726.94;4985187;28;20232;-83
2023/06/12 07:40:23;;;;;;;14.38;4.72;;;;;;;23.76;89.48;99663.28;4982047;28;20231;-81
2023/06/12 07:42:52;;;;;;;4.10;1.80;;;;;;;24.03;92.75;99722.91;4964784;28;20232;-79
2023/06/12 07:45:20;;;;;;;30.60;8.90;;;;;;;24.42;90.51;99727.84;4942026;28;20228;-81
2023/06/12 07:47:49;;;;;;;2.97;1.50;;;;;;;24.46;90.77;99718.59;4976145;28;20265;-79
2023/06/12 07:50:16;;;;;;;32.25;7.47;;;;;;;24.58;88.87;99703.50;4972041;28;20230;-79
2023/06/12 07:52:43;;;;;;;3.42;1.60;;;;;;;24.73;88.81;99699.03;4985432;28;20262;-80
2023/06/12 07:55:10;;;;;;;4.50;2.00;;;;;;;24.84;88.99;99692.00;4981134;28;20224;-82
2023/06/12 07:57:37;;;;;;;4.13;1.77;;;;;;;24.97;88.37;99685.81;4981447;28;20235;-81
2023/06/12 08:00:05;;;;;;;5.18;2.00;;;;;;;25.19;87.68;99670.03;4992688;28;20223;-81
2023/06/12 08:02:33;;;;;;;3.95;1.80;;;;;;;25.52;88.36;99692.22;4994871;28;20310;-81
2023/06/12 08:05:00;;;;;;;4.05;1.83;;;;;;;25.10;89.08;99635.44;4985315;28;20643;-81
2023/06/12 08:07:27;;;;;;;41.47;9.60;;;;;;;25.96;86.96;99688.47;4983574;28;20263;-81
2023/06/12 08:09:54;;;;;;;5.07;2.15;;;;;;;25.55;82.38;99565.75;4985716;28;20224;-83
2023/06/12 08:12:21;;;;;;;30.42;7.03;;;;;;;26.12;83.14;99617.91;4964844;28;20239;-82
2023/06/12 08:14:49;;;;;;;6.00;2.58;;;;;;;25.99;81.40;99560.06;4989574;28;20231;-81
2023/06/12 08:17:15;;;;;;;38.22;10.18;;;;;;;25.70;83.15;99538.53;4978954;28;20234;-81
2023/06/12 08:19:43;;;;;;;6.10;2.85;;;;;;;25.69;81.43;99504.31;4987410;28;20224;-82
2023/06/12 08:22:11;;;;;;;5.10;2.22;;;;;;;25.71;82.76;99507.78;4982120;28;20319;-83
2023/06/12 08:24:41;;;;;;;3.58;1.70;;;;;;;25.88;85.41;99544.56;4985113;28;20228;-82
2023/06/12 08:27:08;;;;;;;3.03;1.55;;;;;;;25.61;80.59;99441.66;4989832;28;20711;-81
2023/06/12 08:29:37;;;;;;;3.65;1.75;;;;;;;26.72;81.18;99563.13;4984652;28;20235;-81
2023/06/12 08:32:06;;;;;;;3.83;1.98;;;;;;;26.52;80.61;99504.91;4823000;28;20238;-81
2023/06/12 08:34:33;;;;;;;28.02;7.97;;;;;;;26.15;80.22;99444.28;4728172;28;20425;-81
2023/06/12 08:37:00;;;;;;;7.53;4.28;;;;;;;26.19;81.50;99453.91;4868371;28;20316;-81
2023/06/12 08:39:26;;;;;;;5.97;2.88;;;;;;;26.74;75.65;99436.41;4990384;28;20219;-81
2023/06/12 08:42:14;;;;;;;3.80;2.00;;;;;;;26.00;76.57;99323.41;4985477;28;20226;-84
2023/06/12 08:44:45;;;;;;;4.78;2.17;;;;;;;26.90;75.02;99412.59;4980385;28;20231;-82
2023/06/12 08:47:13;;;;;;;4.18;2.00;;;;;;;27.44;76.26;99477.34;4963119;28;20282;-82
2023/06/12 08:49:40;;;;;;;4.47;1.90;;;;;;;26.90;75.02;99369.19;4929232;28;20235;-83
2023/06/12 08:52:07;;;;;;;3.13;1.60;;;;;;;27.32;76.79;99432.13;4960650;28;20246;-82
2023/06/12 08:54:36;;;;;;;4.13;2.28;;;;;;;27.44;76.40;99425.75;4933425;28;20239;-83
2023/06/12 08:57:06;;;;;;;3.60;1.60;;;;;;;26.21;73.89;99216.19;4973778;28;20232;-83
2023/06/12 08:59:34;;;;;;;9.32;3.25;;;;;;;27.16;74.37;99344.66;4759659;28;20262;-83
2023/06/12 09:02:01;;;;;;;2.85;1.52;;;;;;;27.18;73.86;99319.16;4855282;28;20323;-83
2023/06/12 09:04:54;;;;;;;15.23;4.25;;;;;;;27.46;72.50;99327.88;4831395;28;20257;-82
2023/06/12 09:07:22;;;;;;;33.08;9.13;;;;;;;27.55;70.40;99306.31;4919363;28;20228;-82
2023/06/12 09:09:49;;;;;;;3.08;1.40;;;;;;;27.48;76.44;99344.94;4978908;28;20290;-81
2023/06/12 09:12:16;;;;;;;43.55;14.23;;;;;;;27.26;70.71;99237.97;4963866;28;20258;-81
2023/06/12 09:14:48;;;;;;;3.20;1.48;;;;;;;27.57;70.87;99276.31;4983532;28;20232;-82
2023/06/12 09:17:15;;;;;;;28.95;8.00;;;;;;;27.31;70.60;99218.66;4972425;28;20295;-81
2023/06/12 09:19:47;;;;;;;3.20;1.67;;;;;;;27.12;69.89;99174.94;4970893;28;20227;-81
2023/06/12 09:22:13;;;;;;;6.03;2.70;;;;;;;27.49;67.98;99195.47;4983800;23;20261;-80
2023/06/12 09:24:41;;;;;;;5.38;2.28;;;;;;;27.51;67.20;99171.78;4936028;28;20628;-79
2023/06/12 09:27:08;;;;;;;4.55;2.25;;;;;;;27.26;66.58;99117.69;4931931;28;20235;-79
2023/06/12 09:29:36;;;;;;;3.88;1.80;;;;;;;27.41;68.59;99149.06;4927727;28;20244;-79
2023/06/12 09:32:05;;;;;;;4.03;1.73;;;;;;;28.54;68.89;99275.69;4929268;28;20229;-79
2023/06/12 09:34:35;;;;;;;3.13;1.38;;;;;;;27.72;64.94;99104.00;4924681;28;20253;-79
2023/06/12 09:37:05;;;;;;;5.90;2.50;;;;;;;27.53;68.92;99126.34;4954905;28;20241;-78
2023/06/12 09:39:33;;;;;;;6.20;2.30;;;;;;;27.81;68.49;99152.13;4927841;28;20251;-78
2023/06/12 09:42:01;;;;;;;5.50;2.97;;;;;;;27.84;61.86;99059.53;4938331;28;20239;-79
2023/06/12 09:44:30;;;;;;;7.60;3.00;;;;;;;28.08;64.75;99107.34;4924133;28;20665;-78
2023/06/12 09:46:59;;;;;;;3.00;1.58;;;;;;;28.29;65.52;99144.50;4938217;28;20562;-78
2023/06/12 09:49:26;;;;;;;6.55;2.85;;;;;;;28.13;59.76;99023.56;4936201;28;20713;-78
2023/06/12 09:51:54;;;;;;;3.10;1.48;;;;;;;27.57;63.86;99000.19;4938824;28;20237;-79
2023/06/12 09:54:22;;;;;;;13.38;4.28;;;;;;;28.34;61.94;99076.13;4933695;28;20236;-78
2023/06/12 09:56:53;;;;;;;2.92;1.60;;;;;;;28.45;62.34;99078.78;4932191;28;20237;-79
2023/06/12 09:59:22;;;;;;;20.88;6.25;;;;;;;29.65;57.61;99112.72;4933955;28;20233;-79
2023/06/12 10:01:51;;;;;;;3.38;1.90;;;;;;;28.57;55.85;98920.00;4932347;28;20248;-79
2023/06/12 10:04:31;;;;;;;43.15;12.25;;;;;;;28.32;60.38;98959.38;4928140;28;20371;-79
2023/06/12 10:09:47;;;;;;;4.32;2.05;;;;;;;29.67;57.85;99065.25;4967571;28;20216;-80
2023/06/12 10:12:14;;;;;;;14.18;4.20;;;;;;;29.93;56.57;99047.41;4978395;28;20235;-80
2023/06/12 10:14:41;;;;;;;4.10;1.83;;;;;;;29.37;59.08;98983.59;4985565;28;20227;-80
2023/06/12 10:17:08;;;;;;;4.68;1.92;;;;;;;29.54;58.11;98994.69;4971948;28;20216;-82
2023/06/12 10:19:35;;;;;;;6.05;2.42;;;;;;;29.20;57.42;98920.66;4953812;28;20231;-82
2023/06/12 10:22:03;;;;;;;4.25;1.88;;;;;;;29.10;56.57;98888.97;5065361;23;20629;-80
2023/06/12 10:24:30;;;;;;;36.17;6.75;;;;;;;29.04;59.34;98908.59;4934849;28;20252;-80
2023/06/12 10:26:57;;;;;;;3.53;1.50;;;;;;;27.98;59.42;98795.66;4938803;28;20257;-80
2023/06/12 10:29:29;;;;;;;31.73;8.07;;;;;;;28.54;58.99;98884.03;4931374;28;20240;-80
2023/06/12 10:32:06;;;;;;;2.92;1.30;;;;;;;29.82;57.92;99000.31;4894697;28;20225;-80
2023/06/12 10:34:35;;;;;;;4.18;1.90;;;;;;;29.59;50.55;98785.38;4922744;28;20233;-81
2023/06/12 10:37:34;;;;;;;5.32;2.08;;;;;;;29.44;55.66;98856.78;4883895;28;20291;-79
2023/06/12 10:40:14;;;;;;;4.88;2.20;;;;;;;30.68;54.94;98987.66;4916373;28;20244;-79
2023/06/12 10:42:54;;;;;;;4.32;1.90;;;;;;;29.72;56.73;98863.22;4912693;28;20233;-79
2023/06/12 10:45:21;;;;;;;19.52;4.93;;;;;;;30.25;53.67;98888.97;4914622;28;20250;-81
2023/06/12 10:48:03;;;;;;;3.22;1.30;;;;;;;29.38;54.75;98781.09;4920842;28;20240;-81
2023/06/12 10:50:33;;;;;;;6.50;2.13;;;;;;;29.87;54.01;98823.59;4916138;28;20237;-80
2023/06/12 10:53:02;;;;;;;3.70;1.42;;;;;;;28.91;55.47;98723.81;4925804;29;20823;-81
2023/06/12 10:55:32;;;;;;;37.33;7.53;;;;;;;29.17;56.68;98781.25;4902883;28;20238;-80
2023/06/12 10:58:01;;;;;;;3.15;1.85;;;;;;;29.60;57.32;98852.47;4917289;28;20229;-80
2023/06/12 11:00:38;;;;;;;31.05;7.13;;;;;;;29.92;53.82;98833.09;4912330;28;20230;-81
2023/06/12 11:03:07;;;;;;;2.47;1.27;;;;;;;30.21;54.33;98864.88;4906098;29;20226;-81
2023/06/12 11:05:34;;;;;;;2.97;1.35;;;;;;;30.65;55.10;98903.34;4914200;28;20344;-81
2023/06/12 11:08:06;;;;;;;3.78;1.48;;;;;;;30.92;56.37;98957.94;4922689;28;20396;-81
2023/06/12 11:10:34;;;;;;;3.35;1.45;;;;;;;30.44;53.56;98808.94;4909856;28;20257;-81
2023/06/12 11:13:05;;;;;;;3.42;1.50;;;;;;;30.44;54.09;98816.28;4906851;28;20225;-81
2023/06/12 11:15:41;;;;;;;3.40;1.55;;;;;;;30.72;50.14;98760.69;4917561;28;20262;-80
2023/06/12 11:18:09;;;;;;;3.13;1.48;;;;;;;30.22;48.33;98621.22;4919926;28;20226;-82
2023/06/12 11:20:36;;;;;;;4.95;1.95;;;;;;;30.19;53.67;98722.41;4914044;28;20356;-81
2023/06/12 11:23:03;;;;;;;5.88;2.10;;;;;;;29.76;53.97;98677.50;4921290;28;20222;-81
2023/06/12 11:25:34;;;;;;;13.35;3.45;;;;;;;29.59;52.10;98632.00;4905818;28;20222;-81
2023/06/12 11:28:02;;;;;;;3.60;1.92;;;;;;;29.94;51.75;98681.19;4922932;28;20244;-81
2023/06/12 11:30:29;;;;;;;30.75;6.82;;;;;;;29.57;52.93;98653.06;4914711;28;20648;-81
2023/06/12 11:33:08;;;;;;;3.00;1.23;;;;;;;29.82;50.17;98619.69;4924921;28;20277;-81
2023/06/12 11:35:39;;;;;;;2.80;1.27;;;;;;;30.59;51.96;98759.38;4912948;28;20237;-82